createdAt,value
2022-09-11T00:00:30.084Z,99992.63
2022-09-11T00:01:17.875Z,99985.00
2022-09-11T00:02:10.505Z,99983.34
2022-09-11T00:03:02.035Z,99982.03
2022-09-11T00:03:59.528Z,99985.88
2022-09-11T00:04:49.030Z,99983.50
2022-09-11T00:05:44.129Z,99980.28
2022-09-11T00:06:32.434Z,99991.50
2022-09-11T00:07:22.052Z,99990.78
2022-09-11T00:08:09.987Z,99984.41
2022-09-11T00:08:59.210Z,99986.53
2022-09-11T00:09:46.926Z,99993.72
2022-09-11T00:10:35.123Z,99991.22
2022-09-11T00:11:20.856Z,99984.47
2022-09-11T00:12:12.100Z,99992.19
2022-09-11T00:13:02.627Z,99986.16
2022-09-11T00:13:53.192Z,99985.06
2022-09-11T00:15:42.899Z,99990.78
2022-09-11T00:16:34.231Z,99992.63
2022-09-11T00:17:27.193Z,99997.75
2022-09-11T00:18:15.012Z,100008.03
2022-09-11T00:19:02.677Z,100007.50
2022-09-11T00:19:50.776Z,99999.72
2022-09-11T00:20:39.547Z,100001.53
2022-09-11T00:21:26.146Z,99998.44
2022-09-11T00:22:13.953Z,100000.09
2022-09-11T00:23:04.282Z,99998.19
2022-09-11T00:23:51.679Z,100001.97
2022-09-11T00:24:39.162Z,100004.78
2022-09-11T00:25:26.476Z,99999.00
2022-09-11T00:26:12.172Z,99993.47
2022-09-11T00:27:00.030Z,99996.84
2022-09-11T00:27:46.965Z,99994.19
2022-09-11T00:28:37.608Z,99990.78
2022-09-11T00:29:26.598Z,99991.75
2022-09-11T00:30:14.844Z,99998.75
2022-09-11T00:31:11.367Z,99995.09
2022-09-11T00:31:59.120Z,99993.59
2022-09-11T00:32:48.529Z,99988.38
2022-09-11T00:33:37.987Z,99984.84
2022-09-11T00:34:33.283Z,99989.22
2022-09-11T00:35:20.792Z,99985.22
2022-09-11T00:36:09.364Z,99984.56
2022-09-11T00:37:02.652Z,99982.03
2022-09-11T00:37:51.774Z,99990.34
2022-09-11T00:38:38.626Z,99991.06
2022-09-11T00:39:27.214Z,99987.75
2022-09-11T00:40:15.838Z,99986.69
2022-09-11T00:41:04.348Z,99996.72
2022-09-11T00:41:57.588Z,99990.06
2022-09-11T00:42:47.469Z,99991.44
2022-09-11T00:43:36.265Z,99990.28
2022-09-11T00:44:19.918Z,99994.78
2022-09-11T00:45:09.085Z,99993.97
2022-09-11T00:45:58.996Z,99992.81
2022-09-11T00:46:42.415Z,99996.78
2022-09-11T00:47:36.342Z,99994.66
2022-09-11T00:48:23.021Z,99997.31
2022-09-11T00:49:14.045Z,100002.81
2022-09-11T00:49:59.054Z,100008.47
2022-09-11T00:50:47.150Z,100004.66
2022-09-11T00:51:33.427Z,100008.00
2022-09-11T00:52:24.591Z,100009.72
2022-09-11T00:53:18.306Z,100002.66
2022-09-11T00:54:04.427Z,100006.16
2022-09-11T00:54:55.625Z,100002.53
2022-09-11T00:55:47.023Z,100000.97
2022-09-11T00:56:37.526Z,100008.00
2022-09-11T00:57:26.881Z,100004.38
2022-09-11T00:58:16.896Z,100002.38
2022-09-11T00:59:11.574Z,100010.00
2022-09-11T01:00:01.405Z,100003.78
2022-09-11T01:00:49.443Z,100007.03
2022-09-11T01:01:37.949Z,100008.84
2022-09-11T01:02:28.332Z,100005.03
2022-09-11T01:03:14.629Z,100003.50
2022-09-11T01:04:06.537Z,100010.69
2022-09-11T01:04:59.686Z,100007.88
2022-09-11T01:05:53.604Z,100007.72
2022-09-11T01:06:43.746Z,100008.53
2022-09-11T01:07:32.871Z,100012.22
2022-09-11T01:08:22.997Z,100013.06
2022-09-11T01:09:10.646Z,100007.72
2022-09-11T01:10:01.400Z,100013.34
2022-09-11T01:10:49.290Z,100011.38
2022-09-11T01:11:47.018Z,100010.69
2022-09-11T01:12:30.938Z,100005.72
2022-09-11T01:13:23.510Z,100012.13
2022-09-11T01:14:12.714Z,100007.88
2022-09-11T01:15:14.483Z,100015.59
2022-09-11T01:15:56.154Z,100012.38
2022-09-11T01:16:58.284Z,100026.03
2022-09-11T01:18:06.732Z,100016.34
2022-09-11T01:18:58.181Z,100021.22
2022-09-11T01:19:59.706Z,100017.88
2022-09-11T01:20:51.824Z,100020.63
2022-09-11T01:21:41.866Z,100022.19
2022-09-11T01:22:34.386Z,100026.09
2022-09-11T01:23:23.160Z,100021.22
2022-09-11T01:24:14.398Z,100019.97
2022-09-11T01:25:14.998Z,100018.28
2022-09-11T01:26:09.158Z,100022.09
2022-09-11T01:26:59.084Z,100018.72
2022-09-11T01:27:52.371Z,100028.75
2022-09-11T01:28:40.865Z,100029.81
2022-09-11T01:29:26.864Z,100025.19
2022-09-11T01:30:13.293Z,100030.69
2022-09-11T01:30:59.088Z,100025.91
2022-09-11T01:31:48.367Z,100023.94
2022-09-11T01:32:50.665Z,100022.09
2022-09-11T01:33:38.115Z,100023.41
2022-09-11T01:34:31.077Z,100028.03
2022-09-11T01:35:19.761Z,100031.72
2022-09-11T01:36:04.731Z,100037.72
2022-09-11T01:36:52.455Z,100035.44
2022-09-11T01:37:42.642Z,100034.09
2022-09-11T01:38:39.179Z,100033.94
2022-09-11T01:39:30.534Z,100037.72
2022-09-11T01:40:18.808Z,100042.41
2022-09-11T01:41:06.773Z,100037.72
2022-09-11T01:41:52.116Z,100036.03
2022-09-11T01:42:40.215Z,100035.50
2022-09-11T01:43:35.026Z,100037.72
2022-09-11T01:44:33.189Z,100032.53
2022-09-11T01:45:22.452Z,100040.00
2022-09-11T01:46:09.176Z,100042.84
2022-09-11T01:46:57.467Z,100045.06
2022-09-11T01:47:46.913Z,100042.53
2022-09-11T01:48:31.016Z,100039.72
2022-09-11T01:49:16.926Z,100046.88
2022-09-11T01:50:09.084Z,100039.56
2022-09-11T01:50:58.015Z,100042.00
2022-09-11T01:51:47.567Z,100041.69
2022-09-11T01:52:32.534Z,100042.00
2022-09-11T01:53:25.367Z,100042.69
2022-09-11T01:54:13.094Z,100050.56
2022-09-11T01:54:58.658Z,100042.69
2022-09-11T01:55:47.197Z,100044.34
2022-09-11T01:56:34.546Z,100049.16
2022-09-11T01:57:21.467Z,100050.03
2022-09-11T01:58:06.752Z,100051.53
2022-09-11T01:58:58.656Z,100054.34
2022-09-11T01:59:46.238Z,100054.66
2022-09-11T02:00:33.657Z,100054.34
2022-09-11T02:01:28.564Z,100052.84
2022-09-11T02:02:19.305Z,100056.91
2022-09-11T02:03:09.838Z,100060.00
2022-09-11T02:04:04.055Z,100055.66
2022-09-11T02:04:54.080Z,100057.59
2022-09-11T02:05:41.237Z,100061.00
2022-09-11T02:06:28.905Z,100051.03
2022-09-11T02:07:19.134Z,100056.38
2022-09-11T02:08:16.308Z,100057.59
2022-09-11T02:09:03.629Z,100059.31
2022-09-11T02:09:57.273Z,100058.31
2022-09-11T02:10:47.602Z,100065.47
2022-09-11T02:11:35.223Z,100057.47
2022-09-11T02:12:23.196Z,100061.44
2022-09-11T02:13:12.875Z,100058.91
2022-09-11T02:13:55.064Z,100063.97
2022-09-11T02:14:55.136Z,100061.56
2022-09-11T02:15:42.618Z,100064.94
2022-09-11T02:16:30.184Z,100066.91
2022-09-11T02:17:33.373Z,100060.88
2022-09-11T02:18:38.947Z,100067.91
2022-09-11T02:19:32.163Z,100065.22
2022-09-11T02:20:23.217Z,100064.69
2022-09-11T02:21:10.669Z,100072.00
2022-09-11T02:21:58.049Z,100064.69
2022-09-11T02:22:46.547Z,100068.75
2022-09-11T02:23:37.986Z,100064.53
2022-09-11T02:24:22.908Z,100064.41
2022-09-11T02:25:12.743Z,100063.25
2022-09-11T02:25:59.096Z,100065.50
2022-09-11T02:26:50.850Z,100069.88
2022-09-11T02:27:38.392Z,100067.22
2022-09-11T02:28:27.728Z,100068.03
2022-09-11T02:29:15.147Z,100066.09
2022-09-11T02:30:01.756Z,100068.91
2022-09-11T02:30:53.705Z,100064.25
2022-09-11T02:31:45.022Z,100067.22
2022-09-11T02:32:33.153Z,100070.84
2022-09-11T02:33:38.261Z,100062.56
2022-09-11T02:34:27.583Z,100071.88
2022-09-11T02:35:14.643Z,100071.88
2022-09-11T02:36:09.189Z,100063.72
2022-09-11T02:36:58.659Z,100073.25
2022-09-11T02:37:54.366Z,100070.72
2022-09-11T02:38:41.893Z,100062.16
2022-09-11T02:39:24.615Z,100068.19
2022-09-11T02:40:07.111Z,100069.88
2022-09-11T02:41:05.998Z,100067.34
2022-09-11T02:41:47.168Z,100071.00
2022-09-11T02:42:36.007Z,100070.31
2022-09-11T02:43:28.524Z,100071.88
2022-09-11T02:44:16.408Z,100064.81
2022-09-11T02:44:57.858Z,100073.53
2022-09-11T02:45:46.434Z,100077.06
2022-09-11T02:46:42.721Z,100076.19
2022-09-11T02:47:41.146Z,100078.88
2022-09-11T02:48:34.588Z,100072.84
2022-09-11T02:49:28.426Z,100077.50
2022-09-11T02:50:08.754Z,100074.69
2022-09-11T02:51:11.372Z,100071.00
2022-09-11T02:52:05.864Z,100071.00
2022-09-11T02:52:46.936Z,100082.84
2022-09-11T02:53:36.373Z,100076.34
2022-09-11T02:54:35.770Z,100072.69
2022-09-11T02:55:25.721Z,100080.03
2022-09-11T02:56:10.067Z,100081.84
2022-09-11T02:57:13.668Z,100084.22
2022-09-11T02:58:09.486Z,100078.31
2022-09-11T02:58:56.066Z,100081.84
2022-09-11T02:59:47.128Z,100084.50
2022-09-11T03:00:37.942Z,100075.66
2022-09-11T03:01:25.572Z,100078.47
2022-09-11T03:02:14.008Z,100076.81
2022-09-11T03:03:03.022Z,100080.84
2022-09-11T03:03:54.977Z,100087.50
2022-09-11T03:04:43.584Z,100084.81
2022-09-11T03:05:29.822Z,100087.06
2022-09-11T03:06:17.490Z,100090.44
2022-09-11T03:07:06.311Z,100087.63
2022-09-11T03:07:53.596Z,100088.47
2022-09-11T03:08:41.784Z,100091.81
2022-09-11T03:09:34.071Z,100086.63
2022-09-11T03:10:23.089Z,100089.28
2022-09-11T03:11:10.100Z,100092.97
2022-09-11T03:11:54.609Z,100094.78
2022-09-11T03:12:40.765Z,100090.84
2022-09-11T03:13:28.697Z,100089.84
2022-09-11T03:14:18.283Z,100090.84
2022-09-11T03:15:10.199Z,100083.28
2022-09-11T03:15:58.949Z,100094.78
2022-09-11T03:16:48.050Z,100092.84
2022-09-11T03:17:35.313Z,100097.47
2022-09-11T03:18:26.064Z,100092.41
2022-09-11T03:19:12.413Z,100089.84
2022-09-11T03:19:58.342Z,100094.94
2022-09-11T03:20:50.208Z,100087.63
2022-09-11T03:21:34.981Z,100086.09
2022-09-11T03:22:22.700Z,100094.09
2022-09-11T03:23:09.765Z,100092.25
2022-09-11T03:24:00.732Z,100093.94
2022-09-11T03:24:46.751Z,100094.94
2022-09-11T03:25:34.072Z,100094.09
2022-09-11T03:26:20.216Z,100097.75
2022-09-11T03:27:06.380Z,100089.59
2022-09-11T03:27:52.037Z,100085.09
2022-09-11T03:28:37.888Z,100085.09
2022-09-11T03:29:23.822Z,100091.28
2022-09-11T03:30:12.595Z,100092.41
2022-09-11T03:31:01.695Z,100086.09
2022-09-11T03:31:54.300Z,100094.78
2022-09-11T03:32:43.216Z,100087.78
2022-09-11T03:33:31.638Z,100097.47
2022-09-11T03:34:24.386Z,100091.44
2022-09-11T03:35:10.974Z,100099.44
2022-09-11T03:35:59.107Z,100100.13
2022-09-11T03:36:49.037Z,100095.50
2022-09-11T03:37:42.158Z,100097.16
2022-09-11T03:38:34.023Z,100100.28
2022-09-11T03:39:24.893Z,100101.13
2022-09-11T03:40:12.727Z,100106.19
2022-09-11T03:41:01.772Z,100097.03
2022-09-11T03:41:49.642Z,100099.44
2022-09-11T03:42:37.243Z,100099.44
2022-09-11T03:43:30.061Z,100100.28
2022-09-11T03:44:21.113Z,100109.84
2022-09-11T03:45:07.049Z,100114.34
2022-09-11T03:45:54.342Z,100110.13
2022-09-11T03:46:42.627Z,100114.03
2022-09-11T03:47:30.293Z,100110.25
2022-09-11T03:48:18.357Z,100112.06
2022-09-11T03:49:07.456Z,100109.28
2022-09-11T03:50:03.720Z,100105.19
2022-09-11T03:50:52.522Z,100110.38
2022-09-11T03:51:41.344Z,100105.75
2022-09-11T03:52:30.454Z,100107.84
2022-09-11T03:53:22.798Z,100111.34
2022-09-11T03:54:14.159Z,100107.84
2022-09-11T03:55:10.073Z,100107.72
2022-09-11T03:55:57.760Z,100105.63
2022-09-11T03:56:45.593Z,100118.38
2022-09-11T03:57:34.211Z,100105.19
2022-09-11T03:58:23.545Z,100120.38
2022-09-11T03:59:10.278Z,100105.31
2022-09-11T04:00:01.632Z,100106.72
2022-09-11T04:00:57.789Z,100113.03
2022-09-11T04:01:45.319Z,100110.13
2022-09-11T04:02:35.211Z,100103.09
2022-09-11T04:03:22.882Z,100107.31
2022-09-11T04:04:11.116Z,100111.81
2022-09-11T04:04:59.042Z,100110.13
2022-09-11T04:05:49.258Z,100108.53
2022-09-11T04:06:45.120Z,100109.53
2022-09-11T04:07:32.766Z,100118.13
2022-09-11T04:08:19.286Z,100111.09
2022-09-11T04:09:07.710Z,100114.50
2022-09-11T04:09:56.722Z,100121.63
2022-09-11T04:10:46.048Z,100121.06
2022-09-11T04:11:37.192Z,100120.50
2022-09-11T04:12:23.242Z,100118.81
2022-09-11T04:13:10.851Z,100123.72
2022-09-11T04:13:59.421Z,100122.34
2022-09-11T04:14:53.500Z,100119.53
2022-09-11T04:15:40.445Z,100120.38
2022-09-11T04:16:24.637Z,100117.69
2022-09-11T04:17:13.854Z,100127.38
2022-09-11T04:18:04.883Z,100126.41
2022-09-11T04:18:51.952Z,100124.69
2022-09-11T04:19:41.654Z,100128.38
2022-09-11T04:20:32.822Z,100130.66
2022-09-11T04:21:19.686Z,100126.41
2022-09-11T04:22:09.721Z,100127.97
2022-09-11T04:22:57.459Z,100129.50
2022-09-11T04:23:45.539Z,100125.84
2022-09-11T04:24:34.015Z,100130.38
2022-09-11T04:25:20.049Z,100124.88
2022-09-11T04:26:11.964Z,100130.22
2022-09-11T04:27:02.364Z,100132.31
2022-09-11T04:27:50.678Z,100130.50
2022-09-11T04:28:37.579Z,100133.31
2022-09-11T04:29:26.868Z,100137.09
2022-09-11T04:30:16.971Z,100128.81
2022-09-11T04:31:01.726Z,100135.13
2022-09-11T04:31:48.514Z,100137.09
2022-09-11T04:32:35.325Z,100139.91
2022-09-11T04:33:20.960Z,100138.78
2022-09-11T04:34:09.764Z,100137.09
2022-09-11T04:34:58.658Z,100138.53
2022-09-11T04:36:52.801Z,100141.72
2022-09-11T04:37:39.450Z,100138.06
2022-09-11T04:38:26.208Z,100141.72
2022-09-11T04:39:14.603Z,100145.22
2022-09-11T04:40:09.243Z,100137.91
2022-09-11T04:40:55.283Z,100138.78
2022-09-11T04:41:45.671Z,100136.84
2022-09-11T04:42:35.296Z,100140.72
2022-09-11T04:43:24.663Z,100141.72
2022-09-11T04:44:15.128Z,100143.41
2022-09-11T04:45:09.349Z,100150.56
2022-09-11T04:45:57.351Z,100149.47
2022-09-11T04:46:45.898Z,100157.75
2022-09-11T04:47:32.388Z,100151.72
2022-09-11T04:48:25.424Z,100150.44
2022-09-11T04:49:15.751Z,100150.44
2022-09-11T04:50:04.544Z,100154.25
2022-09-11T04:51:00.448Z,100149.75
2022-09-11T04:51:47.845Z,100154.09
2022-09-11T04:52:37.905Z,100147.91
2022-09-11T04:53:28.492Z,100147.75
2022-09-11T04:54:17.553Z,100147.75
2022-09-11T04:55:07.123Z,100145.09
2022-09-11T04:56:00.322Z,100155.09
2022-09-11T04:56:50.882Z,100139.06
2022-09-11T04:57:38.547Z,100146.06
2022-09-11T04:58:27.782Z,100150.44
2022-09-11T04:59:25.076Z,100147.22
2022-09-11T05:00:14.421Z,100153.38
2022-09-11T05:01:07.662Z,100154.53
2022-09-11T05:01:55.270Z,100155.91
2022-09-11T05:02:43.468Z,100151.41
2022-09-11T05:03:32.520Z,100149.47
2022-09-11T05:04:25.282Z,100149.47
2022-09-11T05:05:14.749Z,100148.06
2022-09-11T05:06:08.094Z,100157.63
2022-09-11T05:06:55.589Z,100150.31
2022-09-11T05:07:42.820Z,100152.84
2022-09-11T05:08:32.623Z,100162.72
2022-09-11T05:09:19.936Z,100153.09
2022-09-11T05:10:06.102Z,100152.28
2022-09-11T05:10:52.631Z,100150.31
2022-09-11T05:11:40.863Z,100155.91
2022-09-11T05:12:35.515Z,100153.69
2022-09-11T05:13:24.847Z,100157.91
2022-09-11T05:14:11.856Z,100154.41
2022-09-11T05:15:04.417Z,100158.72
2022-09-11T05:15:55.776Z,100154.09
2022-09-11T05:16:42.857Z,100160.28
2022-09-11T05:17:35.289Z,100161.13
2022-09-11T05:18:31.998Z,100156.75
2022-09-11T05:19:21.504Z,100160.44
2022-09-11T05:20:11.272Z,100153.09
2022-09-11T05:21:01.867Z,100160.16
2022-09-11T05:21:47.906Z,100149.75
2022-09-11T05:22:36.136Z,100155.91
2022-09-11T05:23:26.387Z,100155.09
2022-09-11T05:24:13.019Z,100158.03
2022-09-11T05:25:01.722Z,100158.88
2022-09-11T05:25:57.021Z,100157.06
2022-09-11T05:26:42.763Z,100164.22
2022-09-11T05:27:31.741Z,100164.06
2022-09-11T05:28:21.707Z,100159.88
2022-09-11T05:29:10.838Z,100160.56
2022-09-11T05:29:58.656Z,100161.41
2022-09-11T05:30:46.937Z,100168.59
2022-09-11T05:31:40.793Z,100162.53
2022-09-11T05:32:31.333Z,100160.03
2022-09-11T05:33:22.968Z,100162.41
2022-09-11T05:34:13.419Z,100168.44
2022-09-11T05:35:03.195Z,100169.13
2022-09-11T05:35:54.098Z,100166.75
2022-09-11T05:36:49.718Z,100170.28
2022-09-11T05:37:40.535Z,100166.06
2022-09-11T05:38:30.274Z,100168.59
2022-09-11T05:39:21.414Z,100168.59
2022-09-11T05:40:11.895Z,100167.44
2022-09-11T05:41:00.407Z,100167.88
2022-09-11T05:41:55.019Z,100173.38
2022-09-11T05:42:44.523Z,100169.69
2022-09-11T05:43:33.750Z,100175.91
2022-09-11T05:44:21.398Z,100175.91
2022-09-11T05:45:07.445Z,100166.06
2022-09-11T05:45:53.669Z,100179.41
2022-09-11T05:46:42.899Z,100175.75
2022-09-11T05:48:34.085Z,100181.25
2022-09-11T05:49:22.124Z,100176.03
2022-09-11T05:50:10.798Z,100175.63
2022-09-11T05:51:09.488Z,100183.03
2022-09-11T05:51:55.979Z,100181.66
2022-09-11T05:52:43.102Z,100187.41
2022-09-11T05:53:32.035Z,100193.03
2022-09-11T05:54:21.565Z,100196.13
2022-09-11T05:55:07.882Z,100190.78
2022-09-11T05:55:56.260Z,100191.06
2022-09-11T05:56:52.179Z,100196.41
2022-09-11T05:57:38.875Z,100202.88
2022-09-11T05:58:25.525Z,100198.09
2022-09-11T05:59:16.201Z,100196.41
2022-09-11T06:00:07.172Z,100195.72
2022-09-11T06:00:55.586Z,100197.25
2022-09-11T06:01:52.133Z,100193.03
2022-09-11T06:02:43.094Z,100193.59
2022-09-11T06:03:32.839Z,100202.59
2022-09-11T06:04:20.097Z,100203.03
2022-09-11T06:05:08.674Z,100207.38
2022-09-11T06:05:57.770Z,100203.72
2022-09-11T06:06:43.960Z,100210.75
2022-09-11T06:07:35.185Z,100208.38
2022-09-11T06:08:28.956Z,100214.41
2022-09-11T06:09:19.623Z,100218.63
2022-09-11T06:10:05.575Z,100221.44
2022-09-11T06:10:57.034Z,100214.41
2022-09-11T06:11:45.237Z,100215.97
2022-09-11T06:12:31.403Z,100211.03
2022-09-11T06:13:20.063Z,100216.53
2022-09-11T06:14:12.740Z,100214.41
2022-09-11T06:15:01.354Z,100216.09
2022-09-11T06:15:53.494Z,100222.13
2022-09-11T06:16:44.157Z,100214.41
2022-09-11T06:17:34.031Z,100218.63
2022-09-11T06:18:25.372Z,100217.78
2022-09-11T06:19:21.187Z,100217.63
2022-09-11T06:20:08.764Z,100221.16
2022-09-11T06:21:01.018Z,100226.78
2022-09-11T06:21:48.025Z,100225.22
2022-09-11T06:22:35.940Z,100226.63
2022-09-11T06:23:23.738Z,100229.16
2022-09-11T06:24:14.056Z,100217.47
2022-09-11T06:25:10.912Z,100226.50
2022-09-11T06:25:59.952Z,100225.09
2022-09-11T06:26:52.449Z,100225.63
2022-09-11T06:27:38.486Z,100223.09
2022-09-11T06:28:28.016Z,100223.84
2022-09-11T06:29:18.960Z,100222.97
2022-09-11T06:30:08.151Z,100228.16
2022-09-11T06:31:03.342Z,100221.16
2022-09-11T06:31:50.509Z,100220.44
2022-09-11T06:32:40.054Z,100230.16
2022-09-11T06:33:29.413Z,100231.13
2022-09-11T06:34:16.214Z,100230.16
2022-09-11T06:35:06.380Z,100223.25
2022-09-11T06:35:56.579Z,100233.50
2022-09-11T06:36:53.638Z,100228.44
2022-09-11T06:37:40.503Z,100238.16
2022-09-11T06:38:27.842Z,100233.38
2022-09-11T06:39:15.676Z,100236.31
2022-09-11T06:40:05.238Z,100236.47
2022-09-11T06:40:56.291Z,100238.28
2022-09-11T06:41:52.814Z,100236.47
2022-09-11T06:42:40.219Z,100235.50
2022-09-11T06:43:29.204Z,100235.75
2022-09-11T06:44:16.429Z,100242.66
2022-09-11T06:45:07.349Z,100239.28
2022-09-11T06:45:53.824Z,100236.47
2022-09-11T06:46:48.057Z,100237.47
2022-09-11T06:47:38.630Z,100240.81
2022-09-11T06:48:28.150Z,100243.78
2022-09-11T06:49:17.961Z,100238.28
2022-09-11T06:50:06.470Z,100238.28
2022-09-11T06:50:57.210Z,100235.75
2022-09-11T06:51:47.120Z,100240.13
2022-09-11T06:52:34.701Z,100238.84
2022-09-11T06:53:23.002Z,100245.88
2022-09-11T06:54:08.008Z,100247.88
2022-09-11T06:54:53.126Z,100242.94
2022-09-11T06:55:38.191Z,100251.66
2022-09-11T06:56:25.981Z,100245.75
2022-09-11T06:57:17.301Z,100254.47
2022-09-11T06:58:04.451Z,100251.50
2022-09-11T06:58:49.776Z,100266.13
2022-09-11T06:59:35.566Z,100257.97
2022-09-11T07:00:22.206Z,100257.13
2022-09-11T07:01:18.368Z,100260.78
2022-09-11T07:02:04.936Z,100254.75
2022-09-11T07:02:52.417Z,100261.50
2022-09-11T07:03:38.545Z,100249.53
2022-09-11T07:04:27.401Z,100262.19
2022-09-11T07:05:14.815Z,100261.09
2022-09-11T07:06:05.056Z,100257.00
2022-09-11T07:06:52.161Z,100259.81
2022-09-11T07:07:41.623Z,100255.44
2022-09-11T07:08:30.337Z,100252.75
2022-09-11T07:09:16.512Z,100257.00
2022-09-11T07:10:04.843Z,100263.03
2022-09-11T07:10:53.199Z,100255.00
2022-09-11T07:11:42.298Z,100261.22
2022-09-11T07:12:30.689Z,100252.22
2022-09-11T07:13:18.022Z,100253.75
2022-09-11T07:14:10.449Z,100257.28
2022-09-11T07:14:58.718Z,100256.84
2022-09-11T07:15:45.272Z,100264.16
2022-09-11T07:16:34.299Z,100256.03
2022-09-11T07:17:22.134Z,100256.03
2022-09-11T07:18:10.621Z,100259.25
2022-09-11T07:18:56.699Z,100257.81
2022-09-11T07:19:51.972Z,100260.50
2022-09-11T07:20:39.884Z,100255.88
2022-09-11T07:21:29.669Z,100259.25
2022-09-11T07:22:17.995Z,100258.41
2022-09-11T07:23:07.298Z,100259.53
2022-09-11T07:23:53.710Z,100259.38
2022-09-11T07:24:42.399Z,100252.91
2022-09-11T07:25:31.358Z,100248.56
2022-09-11T07:26:18.810Z,100257.53
2022-09-11T07:27:08.177Z,100247.56
2022-09-11T07:27:55.823Z,100255.75
2022-09-11T07:28:43.877Z,100259.53
2022-09-11T07:29:30.436Z,100257.69
2022-09-11T07:30:16.564Z,100256.84
2022-09-11T07:31:05.193Z,100263.75
2022-09-11T07:31:50.257Z,100260.50
2022-09-11T07:32:36.538Z,100258.69
2022-09-11T07:33:26.629Z,100259.53
2022-09-11T07:34:16.022Z,100258.81
2022-09-11T07:35:06.719Z,100259.38
2022-09-11T07:35:55.169Z,100261.34
2022-09-11T07:37:48.916Z,100269.22
2022-09-11T07:38:37.578Z,100267.25
2022-09-11T07:39:26.349Z,100267.25
2022-09-11T07:40:14.349Z,100272.88
2022-09-11T07:41:00.419Z,100270.06
2022-09-11T07:41:55.206Z,100270.75
2022-09-11T07:42:42.267Z,100269.50
2022-09-11T07:43:31.848Z,100269.22
2022-09-11T07:44:20.741Z,100275.69
2022-09-11T07:45:06.020Z,100269.50
2022-09-11T07:45:54.203Z,100268.66
2022-09-11T07:46:44.298Z,100273.84
2022-09-11T07:47:37.734Z,100280.88
2022-09-11T07:48:28.323Z,100270.63
2022-09-11T07:49:18.390Z,100268.38
2022-09-11T07:50:08.268Z,100275.69
2022-09-11T07:51:02.560Z,100276.38
2022-09-11T07:51:51.550Z,100272.31
2022-09-11T07:52:38.143Z,100284.41
2022-09-11T07:53:25.132Z,100275.53
2022-09-11T07:54:12.325Z,100277.94
2022-09-11T07:54:58.737Z,100277.66
2022-09-11T07:55:44.956Z,100272.19
2022-09-11T07:56:35.304Z,100279.47
2022-09-11T07:57:22.079Z,100275.13
2022-09-11T07:58:09.532Z,100284.66
2022-09-11T07:58:57.546Z,100276.94
2022-09-11T07:59:47.083Z,100276.78
2022-09-11T08:00:37.007Z,100280.47
2022-09-11T08:01:23.819Z,100277.53
2022-09-11T08:02:17.853Z,100273.84
2022-09-11T08:03:07.423Z,100277.53
2022-09-11T08:03:57.164Z,100280.06
2022-09-11T08:04:45.835Z,100276.38
2022-09-11T08:05:34.231Z,100280.06
2022-09-11T08:06:29.846Z,100280.19
2022-09-11T08:07:22.019Z,100286.22
2022-09-11T08:08:09.822Z,100281.84
2022-09-11T08:08:57.530Z,100282.88
2022-09-11T08:09:45.398Z,100282.88
2022-09-11T08:10:33.890Z,100280.19
2022-09-11T08:11:21.403Z,100281.84
2022-09-11T08:12:10.261Z,100286.38
2022-09-11T08:13:08.991Z,100286.22
2022-09-11T08:13:58.825Z,100286.50
2022-09-11T08:14:45.677Z,100283.00
2022-09-11T08:15:34.024Z,100281.84
2022-09-11T08:16:24.360Z,100293.41
2022-09-11T08:17:15.869Z,100280.63
2022-09-11T08:18:09.462Z,100286.94
2022-09-11T08:18:58.001Z,100290.00
2022-09-11T08:19:46.055Z,100297.75
2022-09-11T08:20:34.246Z,100289.59
2022-09-11T08:21:23.453Z,100291.72
2022-09-11T08:22:12.623Z,100290.59
2022-09-11T08:23:00.456Z,100294.38
2022-09-11T08:23:54.189Z,100294.09
2022-09-11T08:24:44.496Z,100295.81
2022-09-11T08:25:33.994Z,100299.59
2022-09-11T08:26:18.739Z,100292.25
2022-09-11T08:27:05.944Z,100298.63
2022-09-11T08:27:58.082Z,100302.25
2022-09-11T08:28:43.130Z,100302.25
2022-09-11T08:29:29.179Z,100300.41
2022-09-11T08:30:13.810Z,100306.31
2022-09-11T08:31:06.285Z,100312.81
2022-09-11T08:31:53.077Z,100301.28
2022-09-11T08:32:44.961Z,100306.75
2022-09-11T08:33:34.324Z,100306.91
2022-09-11T08:34:23.533Z,100313.22
2022-09-11T08:35:09.638Z,100313.91
2022-09-11T08:36:00.076Z,100313.78
2022-09-11T08:36:52.331Z,100311.97
2022-09-11T08:37:50.554Z,100312.94
2022-09-11T08:38:38.952Z,100315.75
2022-09-11T08:39:28.851Z,100307.72
2022-09-11T08:40:17.906Z,100314.19
2022-09-11T08:41:07.622Z,100310.69
2022-09-11T08:41:56.624Z,100314.91
2022-09-11T08:42:54.561Z,100317.59
2022-09-11T08:43:46.699Z,100327.25
2022-09-11T08:44:39.157Z,100319.25
2022-09-11T08:45:24.559Z,100322.06
2022-09-11T08:46:12.619Z,100319.25
2022-09-11T08:47:20.311Z,100324.88
2022-09-11T08:48:18.030Z,100321.50
2022-09-11T08:49:24.247Z,100317.84
2022-09-11T08:50:06.647Z,100324.88
2022-09-11T08:50:59.680Z,100319.25
2022-09-11T08:51:51.767Z,100319.97
2022-09-11T08:52:43.716Z,100325.31
2022-09-11T08:53:39.255Z,100326.97
2022-09-11T08:54:32.115Z,100326.28
2022-09-11T08:55:20.304Z,100326.56
2022-09-11T08:56:13.501Z,100327.41
2022-09-11T08:57:02.311Z,100321.09
2022-09-11T08:57:52.603Z,100333.59
2022-09-11T08:58:54.582Z,100331.78
2022-09-11T08:59:46.167Z,100327.25
2022-09-11T09:00:34.939Z,100328.25
2022-09-11T09:01:35.346Z,100331.91
2022-09-11T09:02:34.646Z,100335.41
2022-09-11T09:03:19.396Z,100330.94
2022-09-11T09:04:13.298Z,100336.97
2022-09-11T09:05:05.329Z,100333.34
2022-09-11T09:06:09.399Z,100335.00
2022-09-11T09:06:58.384Z,100342.19
2022-09-11T09:07:55.533Z,100336.13
2022-09-11T09:08:38.233Z,100342.31
2022-09-11T09:09:43.976Z,100339.50
2022-09-11T09:10:31.954Z,100342.03
2022-09-11T09:11:22.323Z,100347.22
2022-09-11T09:12:17.512Z,100349.91
2022-09-11T09:13:18.698Z,100345.25
2022-09-11T09:14:13.469Z,100344.97
2022-09-11T09:15:13.215Z,100348.34
2022-09-11T09:15:55.041Z,100344.16
2022-09-11T09:16:51.297Z,100347.78
2022-09-11T09:17:41.081Z,100339.38
2022-09-11T09:18:25.563Z,100343.16
2022-09-11T09:19:11.361Z,100343.72
2022-09-11T09:19:54.355Z,100350.19
2022-09-11T09:20:41.848Z,100347.38
2022-09-11T09:21:28.026Z,100347.38
2022-09-11T09:22:27.149Z,100348.91
2022-09-11T09:23:15.194Z,100346.25
2022-09-11T09:24:05.217Z,100351.59
2022-09-11T09:24:56.981Z,100347.84
2022-09-11T09:25:46.302Z,100349.06
2022-09-11T09:26:34.247Z,100346.38
2022-09-11T09:27:27.494Z,100353.31
2022-09-11T09:28:10.017Z,100352.44
2022-09-11T09:28:57.830Z,100353.56
2022-09-11T09:29:47.036Z,100357.06
2022-09-11T09:30:33.348Z,100359.59
2022-09-11T09:31:22.137Z,100347.38
2022-09-11T09:32:16.005Z,100350.75
2022-09-11T09:33:04.099Z,100364.84